sensor_id;sensor_type;location;lat;lon;timestamp;P1;durP1;ratioP1;P2;durP2;ratioP2
56581;SDS011;42463;52.214;21.238;2023-12-22T00:01:35;6.50;;;2.00;;
56581;SDS011;42463;52.214;21.238;2023-12-22T00:03:42;7.50;;;2.50;;
56581;SDS011;42463;52.214;21.238;2023-12-22T00:05:50;5.50;;;1.90;;
56581;SDS011;42463;52.214;21.238;2023-12-22T00:07:56;3.50;;;1.70;;
56581;SDS011;42463;52.214;21.238;2023-12-22T00:10:03;5.00;;;2.10;;
56581;SDS011;42463;52.214;21.238;2023-12-22T00:12:10;4.80;;;1.80;;
56581;SDS011;42463;52.214;21.238;2023-12-22T00:14:17;5.80;;;2.10;;
56581;SDS011;42463;52.214;21.238;2023-12-22T00:16:24;6.50;;;1.80;;
56581;SDS011;42463;52.214;21.238;2023-12-22T00:18:30;5.80;;;2.10;;
56581;SDS011;42463;52.214;21.238;2023-12-22T00:20:36;3.90;;;1.80;;
56581;SDS011;42463;52.214;21.238;2023-12-22T00:22:42;8.00;;;2.20;;
56581;SDS011;42463;52.214;21.238;2023-12-22T00:24:49;5.20;;;2.10;;
56581;SDS011;42463;52.214;21.238;2023-12-22T00:26:56;7.20;;;2.00;;
56581;SDS011;42463;52.214;21.238;2023-12-22T00:29:02;7.50;;;1.80;;
56581;SDS011;42463;52.214;21.238;2023-12-22T00:31:09;7.80;;;2.70;;
56581;SDS011;42463;52.214;21.238;2023-12-22T00:33:15;9.50;;;2.10;;
56581;SDS011;42463;52.214;21.238;2023-12-22T00:35:21;8.80;;;1.80;;
56581;SDS011;42463;52.214;21.238;2023-12-22T00:37:28;11.30;;;2.40;;
56581;SDS011;42463;52.214;21.238;2023-12-22T00:39:36;12.60;;;2.50;;
56581;SDS011;42463;52.214;21.238;2023-12-22T00:41:43;10.30;;;1.90;;
56581;SDS011;42463;52.214;21.238;2023-12-22T00:43:49;7.20;;;2.20;;
56581;SDS011;42463;52.214;21.238;2023-12-22T00:45:55;7.40;;;2.60;;
56581;SDS011;42463;52.214;21.238;2023-12-22T00:48:02;4.70;;;1.60;;
56581;SDS011;42463;52.214;21.238;2023-12-22T00:50:09;9.80;;;3.00;;
56581;SDS011;42463;52.214;21.238;2023-12-22T00:52:15;9.10;;;1.90;;
56581;SDS011;42463;52.214;21.238;2023-12-22T00:54:21;5.50;;;2.10;;
56581;SDS011;42463;52.214;21.238;2023-12-22T00:56:28;6.70;;;2.10;;
56581;SDS011;42463;52.214;21.238;2023-12-22T00:58:34;6.20;;;2.20;;
56581;SDS011;42463;52.214;21.238;2023-12-22T01:00:41;9.20;;;2.20;;
56581;SDS011;42463;52.214;21.238;2023-12-22T01:02:47;6.10;;;2.00;;
56581;SDS011;42463;52.214;21.238;2023-12-22T01:04:53;6.00;;;1.70;;
56581;SDS011;42463;52.214;21.238;2023-12-22T01:07:01;5.80;;;2.20;;
56581;SDS011;42463;52.214;21.238;2023-12-22T01:09:07;6.30;;;1.90;;
56581;SDS011;42463;52.214;21.238;2023-12-22T01:11:16;8.00;;;2.00;;
56581;SDS011;42463;52.214;21.238;2023-12-22T01:13:22;11.10;;;2.40;;
56581;SDS011;42463;52.214;21.238;2023-12-22T01:15:29;5.00;;;1.70;;
56581;SDS011;42463;52.214;21.238;2023-12-22T01:17:35;7.20;;;1.90;;
56581;SDS011;42463;52.214;21.238;2023-12-22T01:19:42;8.60;;;2.00;;
56581;SDS011;42463;52.214;21.238;2023-12-22T01:21:49;9.50;;;2.00;;
56581;SDS011;42463;52.214;21.238;2023-12-22T01:23:56;8.40;;;2.00;;
56581;SDS011;42463;52.214;21.238;2023-12-22T01:26:03;9.50;;;2.30;;
56581;SDS011;42463;52.214;21.238;2023-12-22T01:28:09;8.90;;;2.20;;
56581;SDS011;42463;52.214;21.238;2023-12-22T01:30:16;7.70;;;2.20;;
56581;SDS011;42463;52.214;21.238;2023-12-22T01:32:23;6.40;;;2.10;;
56581;SDS011;42463;52.214;21.238;2023-12-22T01:34:30;8.10;;;1.60;;
56581;SDS011;42463;52.214;21.238;2023-12-22T01:36:37;10.30;;;2.10;;
56581;SDS011;42463;52.214;21.238;2023-12-22T01:38:43;6.70;;;1.60;;
56581;SDS011;42463;52.214;21.238;2023-12-22T01:40:49;12.50;;;2.30;;
56581;SDS011;42463;52.214;21.238;2023-12-22T01:42:55;8.20;;;2.50;;
56581;SDS011;42463;52.214;21.238;2023-12-22T01:45:02;11.00;;;2.50;;
56581;SDS011;42463;52.214;21.238;2023-12-22T01:47:09;9.50;;;2.30;;
56581;SDS011;42463;52.214;21.238;2023-12-22T01:49:16;9.10;;;2.50;;
56581;SDS011;42463;52.214;21.238;2023-12-22T01:51:24;8.90;;;2.10;;
56581;SDS011;42463;52.214;21.238;2023-12-22T01:53:30;9.30;;;2.60;;
56581;SDS011;42463;52.214;21.238;2023-12-22T01:55:39;9.80;;;2.60;;
56581;SDS011;42463;52.214;21.238;2023-12-22T01:57:46;8.20;;;2.20;;
56581;SDS011;42463;52.214;21.238;2023-12-22T01:59:54;12.90;;;2.10;;
56581;SDS011;42463;52.214;21.238;2023-12-22T02:02:01;10.40;;;2.60;;
56581;SDS011;42463;52.214;21.238;2023-12-22T02:04:08;8.10;;;2.80;;
56581;SDS011;42463;52.214;21.238;2023-12-22T02:06:14;11.50;;;2.90;;
56581;SDS011;42463;52.214;21.238;2023-12-22T02:08:22;11.80;;;2.50;;
56581;SDS011;42463;52.214;21.238;2023-12-22T02:10:32;9.50;;;2.40;;
56581;SDS011;42463;52.214;21.238;2023-12-22T02:12:38;7.20;;;2.00;;
56581;SDS011;42463;52.214;21.238;2023-12-22T02:14:45;11.00;;;3.00;;
56581;SDS011;42463;52.214;21.238;2023-12-22T02:16:51;8.10;;;2.30;;
56581;SDS011;42463;52.214;21.238;2023-12-22T02:19:00;9.40;;;2.30;;
56581;SDS011;42463;52.214;21.238;2023-12-22T02:21:14;11.80;;;2.70;;
56581;SDS011;42463;52.214;21.238;2023-12-22T02:23:22;10.00;;;2.40;;
56581;SDS011;42463;52.214;21.238;2023-12-22T02:25:29;8.60;;;2.30;;
56581;SDS011;42463;52.214;21.238;2023-12-22T02:27:38;9.60;;;2.30;;
56581;SDS011;42463;52.214;21.238;2023-12-22T02:29:51;11.40;;;2.40;;
56581;SDS011;42463;52.214;21.238;2023-12-22T02:32:05;10.30;;;2.00;;
56581;SDS011;42463;52.214;21.238;2023-12-22T02:34:18;12.10;;;2.40;;
56581;SDS011;42463;52.214;21.238;2023-12-22T02:36:26;12.10;;;3.20;;
56581;SDS011;42463;52.214;21.238;2023-12-22T02:38:35;14.60;;;4.00;;
56581;SDS011;42463;52.214;21.238;2023-12-22T02:40:44;10.40;;;2.30;;
56581;SDS011;42463;52.214;21.238;2023-12-22T02:42:52;6.50;;;2.50;;
56581;SDS011;42463;52.214;21.238;2023-12-22T02:44:59;12.80;;;2.50;;
56581;SDS011;42463;52.214;21.238;2023-12-22T02:47:06;8.80;;;2.90;;
56581;SDS011;42463;52.214;21.238;2023-12-22T02:49:12;7.30;;;2.10;;
56581;SDS011;42463;52.214;21.238;2023-12-22T02:51:21;12.20;;;2.50;;
56581;SDS011;42463;52.214;21.238;2023-12-22T02:53:28;6.80;;;2.20;;
56581;SDS011;42463;52.214;21.238;2023-12-22T02:55:34;12.60;;;2.60;;
56581;SDS011;42463;52.214;21.238;2023-12-22T02:57:43;10.40;;;2.10;;
56581;SDS011;42463;52.214;21.238;2023-12-22T02:59:49;13.50;;;3.20;;
56581;SDS011;42463;52.214;21.238;2023-12-22T03:01:55;16.60;;;3.10;;
56581;SDS011;42463;52.214;21.238;2023-12-22T03:04:01;6.80;;;1.80;;
56581;SDS011;42463;52.214;21.238;2023-12-22T03:06:08;9.90;;;2.20;;
56581;SDS011;42463;52.214;21.238;2023-12-22T03:08:15;9.40;;;2.20;;
56581;SDS011;42463;52.214;21.238;2023-12-22T03:10:21;8.80;;;2.40;;
56581;SDS011;42463;52.214;21.238;2023-12-22T03:12:27;13.30;;;2.50;;
56581;SDS011;42463;52.214;21.238;2023-12-22T03:14:34;8.20;;;2.20;;
56581;SDS011;42463;52.214;21.238;2023-12-22T03:16:40;9.50;;;2.20;;
56581;SDS011;42463;52.214;21.238;2023-12-22T03:18:46;10.10;;;2.40;;
56581;SDS011;42463;52.214;21.238;2023-12-22T03:20:53;8.70;;;2.40;;
56581;SDS011;42463;52.214;21.238;2023-12-22T03:22:59;7.30;;;2.70;;
56581;SDS011;42463;52.214;21.238;2023-12-22T03:25:06;8.50;;;2.80;;
56581;SDS011;42463;52.214;21.238;2023-12-22T03:27:13;11.30;;;2.30;;
56581;SDS011;42463;52.214;21.238;2023-12-22T03:29:21;9.30;;;2.10;;
56581;SDS011;42463;52.214;21.238;2023-12-22T03:31:28;7.20;;;2.50;;
56581;SDS011;42463;52.214;21.238;2023-12-22T03:33:34;7.80;;;1.90;;
56581;SDS011;42463;52.214;21.238;2023-12-22T03:35:41;9.40;;;2.20;;
56581;SDS011;42463;52.214;21.238;2023-12-22T03:37:48;9.70;;;2.30;;
56581;SDS011;42463;52.214;21.238;2023-12-22T03:39:55;7.30;;;2.00;;
56581;SDS011;42463;52.214;21.238;2023-12-22T03:42:02;11.60;;;2.90;;
56581;SDS011;42463;52.214;21.238;2023-12-22T03:44:10;10.60;;;2.90;;
56581;SDS011;42463;52.214;21.238;2023-12-22T03:46:17;8.40;;;2.50;;
56581;SDS011;42463;52.214;21.238;2023-12-22T03:48:23;9.50;;;2.20;;
56581;SDS011;42463;52.214;21.238;2023-12-22T03:50:29;11.00;;;2.60;;
56581;SDS011;42463;52.214;21.238;2023-12-22T03:52:37;13.00;;;2.60;;
56581;SDS011;42463;52.214;21.238;2023-12-22T03:54:43;9.80;;;2.90;;
56581;SDS011;42463;52.214;21.238;2023-12-22T03:56:49;13.00;;;2.50;;
56581;SDS011;42463;52.214;21.238;2023-12-22T03:58:56;15.60;;;2.70;;
56581;SDS011;42463;52.214;21.238;2023-12-22T04:01:03;9.40;;;2.90;;
56581;SDS011;42463;52.214;21.238;2023-12-22T04:03:11;10.50;;;3.00;;
56581;SDS011;42463;52.214;21.238;2023-12-22T04:05:17;11.40;;;2.50;;
56581;SDS011;42463;52.214;21.238;2023-12-22T04:07:23;13.50;;;2.10;;
56581;SDS011;42463;52.214;21.238;2023-12-22T04:09:29;7.30;;;2.20;;
56581;SDS011;42463;52.214;21.238;2023-12-22T04:11:35;15.00;;;2.80;;
56581;SDS011;42463;52.214;21.238;2023-12-22T04:13:43;7.50;;;2.30;;
56581;SDS011;42463;52.214;21.238;2023-12-22T04:15:49;6.50;;;2.00;;
56581;SDS011;42463;52.214;21.238;2023-12-22T04:17:56;12.00;;;3.10;;
56581;SDS011;42463;52.214;21.238;2023-12-22T04:20:02;15.80;;;3.10;;
56581;SDS011;42463;52.214;21.238;2023-12-22T04:22:10;12.40;;;2.60;;
56581;SDS011;42463;52.214;21.238;2023-12-22T04:24:17;10.70;;;2.80;;
56581;SDS011;42463;52.214;21.238;2023-12-22T04:26:23;6.40;;;2.20;;
56581;SDS011;42463;52.214;21.238;2023-12-22T04:28:29;13.10;;;2.50;;
56581;SDS011;42463;52.214;21.238;2023-12-22T04:30:36;10.00;;;3.70;;
56581;SDS011;42463;52.214;21.238;2023-12-22T04:32:42;7.30;;;2.50;;
56581;SDS011;42463;52.214;21.238;2023-12-22T04:34:48;7.50;;;2.20;;
56581;SDS011;42463;52.214;21.238;2023-12-22T04:36:54;9.10;;;3.20;;
56581;SDS011;42463;52.214;21.238;2023-12-22T04:39:00;5.80;;;2.40;;
56581;SDS011;42463;52.214;21.238;2023-12-22T04:41:06;11.10;;;3.10;;
56581;SDS011;42463;52.214;21.238;2023-12-22T04:43:13;8.50;;;2.70;;
56581;SDS011;42463;52.214;21.238;2023-12-22T04:45:20;10.70;;;2.50;;
56581;SDS011;42463;52.214;21.238;2023-12-22T04:47:26;10.60;;;2.60;;
56581;SDS011;42463;52.214;21.238;2023-12-22T04:49:32;10.80;;;2.50;;
56581;SDS011;42463;52.214;21.238;2023-12-22T04:51:39;8.90;;;2.30;;
56581;SDS011;42463;52.214;21.238;2023-12-22T04:53:45;10.20;;;2.60;;
56581;SDS011;42463;52.214;21.238;2023-12-22T04:55:52;10.30;;;3.10;;
56581;SDS011;42463;52.214;21.238;2023-12-22T04:57:58;10.10;;;2.80;;
56581;SDS011;42463;52.214;21.238;2023-12-22T05:00:07;8.90;;;2.70;;
56581;SDS011;42463;52.214;21.238;2023-12-22T05:02:14;13.40;;;2.40;;
56581;SDS011;42463;52.214;21.238;2023-12-22T05:04:21;8.20;;;3.90;;
56581;SDS011;42463;52.214;21.238;2023-12-22T05:06:28;12.20;;;2.60;;
56581;SDS011;42463;52.214;21.238;2023-12-22T05:08:35;7.30;;;2.40;;
56581;SDS011;42463;52.214;21.238;2023-12-22T05:10:41;10.80;;;3.00;;
56581;SDS011;42463;52.214;21.238;2023-12-22T05:12:47;15.90;;;2.80;;
56581;SDS011;42463;52.214;21.238;2023-12-22T05:14:54;7.90;;;1.90;;
56581;SDS011;42463;52.214;21.238;2023-12-22T05:17:00;8.10;;;2.50;;
56581;SDS011;42463;52.214;21.238;2023-12-22T05:19:06;9.00;;;2.50;;
56581;SDS011;42463;52.214;21.238;2023-12-22T05:21:13;9.70;;;2.30;;
56581;SDS011;42463;52.214;21.238;2023-12-22T05:23:19;14.30;;;3.50;;
56581;SDS011;42463;52.214;21.238;2023-12-22T05:25:26;5.50;;;2.10;;
56581;SDS011;42463;52.214;21.238;2023-12-22T05:27:32;12.10;;;2.30;;
56581;SDS011;42463;52.214;21.238;2023-12-22T05:29:38;10.90;;;2.60;;
56581;SDS011;42463;52.214;21.238;2023-12-22T05:31:44;7.90;;;2.80;;
56581;SDS011;42463;52.214;21.238;2023-12-22T05:33:51;8.20;;;2.10;;
56581;SDS011;42463;52.214;21.238;2023-12-22T05:35:57;9.20;;;2.50;;
56581;SDS011;42463;52.214;21.238;2023-12-22T05:38:04;9.80;;;2.50;;
56581;SDS011;42463;52.214;21.238;2023-12-22T05:40:11;9.00;;;2.20;;
56581;SDS011;42463;52.214;21.238;2023-12-22T05:42:17;7.90;;;2.10;;
56581;SDS011;42463;52.214;21.238;2023-12-22T05:44:24;5.90;;;2.80;;
56581;SDS011;42463;52.214;21.238;2023-12-22T05:46:36;9.20;;;2.50;;
56581;SDS011;42463;52.214;21.238;2023-12-22T05:48:43;7.80;;;2.70;;
56581;SDS011;42463;52.214;21.238;2023-12-22T05:50:50;8.00;;;2.60;;
56581;SDS011;42463;52.214;21.238;2023-12-22T05:52:56;12.20;;;2.90;;
56581;SDS011;42463;52.214;21.238;2023-12-22T05:55:04;9.40;;;2.80;;
56581;SDS011;42463;52.214;21.238;2023-12-22T05:57:11;13.00;;;2.30;;
56581;SDS011;42463;52.214;21.238;2023-12-22T05:59:17;7.20;;;2.30;;
56581;SDS011;42463;52.214;21.238;2023-12-22T06:01:23;11.40;;;3.10;;
56581;SDS011;42463;52.214;21.238;2023-12-22T06:03:30;9.40;;;2.20;;
56581;SDS011;42463;52.214;21.238;2023-12-22T06:05:36;10.00;;;2.40;;
56581;SDS011;42463;52.214;21.238;2023-12-22T06:07:44;14.20;;;2.80;;
56581;SDS011;42463;52.214;21.238;2023-12-22T06:09:53;8.90;;;2.40;;
56581;SDS011;42463;52.214;21.238;2023-12-22T06:12:00;12.30;;;2.70;;
56581;SDS011;42463;52.214;21.238;2023-12-22T06:14:07;12.40;;;2.80;;
56581;SDS011;42463;52.214;21.238;2023-12-22T06:16:14;12.30;;;2.40;;
56581;SDS011;42463;52.214;21.238;2023-12-22T06:18:21;15.40;;;2.70;;
56581;SDS011;42463;52.214;21.238;2023-12-22T06:20:27;11.80;;;3.60;;
56581;SDS011;42463;52.214;21.238;2023-12-22T06:22:33;9.90;;;3.20;;
56581;SDS011;42463;52.214;21.238;2023-12-22T06:24:41;12.90;;;2.90;;
56581;SDS011;42463;52.214;21.238;2023-12-22T06:26:48;11.60;;;2.70;;
56581;SDS011;42463;52.214;21.238;2023-12-22T06:28:55;13.40;;;2.90;;
56581;SDS011;42463;52.214;21.238;2023-12-22T06:31:03;9.90;;;2.70;;
56581;SDS011;42463;52.214;21.238;2023-12-22T06:33:09;13.40;;;2.70;;
56581;SDS011;42463;52.214;21.238;2023-12-22T06:35:15;11.30;;;3.10;;
56581;SDS011;42463;52.214;21.238;2023-12-22T06:37:27;21.00;;;3.00;;
56581;SDS011;42463;52.214;21.238;2023-12-22T06:39:33;15.50;;;3.10;;
56581;SDS011;42463;52.214;21.238;2023-12-22T06:41:40;13.70;;;3.50;;
56581;SDS011;42463;52.214;21.238;2023-12-22T06:43:48;13.60;;;2.80;;
56581;SDS011;42463;52.214;21.238;2023-12-22T06:45:55;12.60;;;2.90;;
56581;SDS011;42463;52.214;21.238;2023-12-22T06:48:01;15.00;;;3.50;;
56581;SDS011;42463;52.214;21.238;2023-12-22T06:50:09;16.80;;;2.50;;
56581;SDS011;42463;52.214;21.238;2023-12-22T06:52:16;13.00;;;2.70;;
56581;SDS011;42463;52.214;21.238;2023-12-22T06:54:26;13.20;;;2.60;;
56581;SDS011;42463;52.214;21.238;2023-12-22T06:56:34;11.70;;;2.20;;
56581;SDS011;42463;52.214;21.238;2023-12-22T06:58:42;9.50;;;2.30;;
56581;SDS011;42463;52.214;21.238;2023-12-22T07:00:50;7.60;;;2.10;;
56581;SDS011;42463;52.214;21.238;2023-12-22T07:02:56;12.90;;;2.50;;
56581;SDS011;42463;52.214;21.238;2023-12-22T07:07:41;12.10;;;2.10;;
56581;SDS011;42463;52.214;21.238;2023-12-22T07:09:48;13.60;;;2.60;;
56581;SDS011;42463;52.214;21.238;2023-12-22T07:11:54;13.20;;;2.30;;
56581;SDS011;42463;52.214;21.238;2023-12-22T07:14:01;6.70;;;2.20;;
56581;SDS011;42463;52.214;21.238;2023-12-22T07:16:08;12.50;;;2.20;;
56581;SDS011;42463;52.214;21.238;2023-12-22T07:18:17;12.40;;;2.10;;
56581;SDS011;42463;52.214;21.238;2023-12-22T07:20:24;8.80;;;2.30;;
56581;SDS011;42463;52.214;21.238;2023-12-22T07:22:30;9.90;;;2.20;;
56581;SDS011;42463;52.214;21.238;2023-12-22T07:24:36;12.00;;;2.00;;
56581;SDS011;42463;52.214;21.238;2023-12-22T07:26:43;9.00;;;1.90;;
56581;SDS011;42463;52.214;21.238;2023-12-22T07:28:50;9.60;;;2.70;;
56581;SDS011;42463;52.214;21.238;2023-12-22T07:30:57;10.00;;;2.10;;
56581;SDS011;42463;52.214;21.238;2023-12-22T07:33:04;13.80;;;2.30;;
56581;SDS011;42463;52.214;21.238;2023-12-22T07:35:11;11.80;;;2.20;;
56581;SDS011;42463;52.214;21.238;2023-12-22T07:37:18;8.50;;;1.80;;
56581;SDS011;42463;52.214;21.238;2023-12-22T07:39:24;14.80;;;2.30;;
56581;SDS011;42463;52.214;21.238;2023-12-22T07:41:31;9.40;;;2.10;;
56581;SDS011;42463;52.214;21.238;2023-12-22T07:43:37;6.90;;;2.20;;
56581;SDS011;42463;52.214;21.238;2023-12-22T07:45:46;17.80;;;2.70;;
56581;SDS011;42463;52.214;21.238;2023-12-22T07:47:53;10.00;;;1.90;;
56581;SDS011;42463;52.214;21.238;2023-12-22T07:50:00;9.20;;;2.30;;
56581;SDS011;42463;52.214;21.238;2023-12-22T07:52:07;8.60;;;2.00;;
56581;SDS011;42463;52.214;21.238;2023-12-22T07:54:13;7.00;;;2.20;;
56581;SDS011;42463;52.214;21.238;2023-12-22T07:56:20;8.20;;;1.80;;
56581;SDS011;42463;52.214;21.238;2023-12-22T07:58:27;8.00;;;2.30;;
56581;SDS011;42463;52.214;21.238;2023-12-22T08:00:38;7.80;;;1.40;;
56581;SDS011;42463;52.214;21.238;2023-12-22T08:02:45;10.70;;;2.20;;
56581;SDS011;42463;52.214;21.238;2023-12-22T08:04:51;9.10;;;1.60;;
56581;SDS011;42463;52.214;21.238;2023-12-22T08:06:58;11.40;;;1.80;;
56581;SDS011;42463;52.214;21.238;2023-12-22T08:09:05;9.50;;;2.50;;
56581;SDS011;42463;52.214;21.238;2023-12-22T08:11:14;13.80;;;2.30;;
56581;SDS011;42463;52.214;21.238;2023-12-22T08:13:22;8.50;;;2.00;;
56581;SDS011;42463;52.214;21.238;2023-12-22T08:15:28;5.70;;;1.70;;
56581;SDS011;42463;52.214;21.238;2023-12-22T08:17:36;8.30;;;2.00;;
56581;SDS011;42463;52.214;21.238;2023-12-22T08:21:56;11.00;;;2.00;;
56581;SDS011;42463;52.214;21.238;2023-12-22T08:24:02;7.80;;;2.10;;
56581;SDS011;42463;52.214;21.238;2023-12-22T08:26:11;6.50;;;1.80;;
56581;SDS011;42463;52.214;21.238;2023-12-22T08:28:20;6.80;;;1.70;;
56581;SDS011;42463;52.214;21.238;2023-12-22T08:30:27;7.90;;;1.70;;
56581;SDS011;42463;52.214;21.238;2023-12-22T08:32:33;7.20;;;1.80;;
56581;SDS011;42463;52.214;21.238;2023-12-22T08:34:42;7.90;;;1.80;;
56581;SDS011;42463;52.214;21.238;2023-12-22T08:36:48;6.50;;;1.60;;
56581;SDS011;42463;52.214;21.238;2023-12-22T08:38:55;5.20;;;1.60;;
56581;SDS011;42463;52.214;21.238;2023-12-22T08:41:02;6.70;;;1.70;;
56581;SDS011;42463;52.214;21.238;2023-12-22T08:43:09;6.20;;;1.70;;
56581;SDS011;42463;52.214;21.238;2023-12-22T08:45:16;7.80;;;2.60;;
56581;SDS011;42463;52.214;21.238;2023-12-22T08:47:22;5.10;;;2.10;;
56581;SDS011;42463;52.214;21.238;2023-12-22T08:49:30;13.50;;;3.20;;
56581;SDS011;42463;52.214;21.238;2023-12-22T08:51:36;11.90;;;2.10;;
56581;SDS011;42463;52.214;21.238;2023-12-22T08:53:43;7.50;;;1.50;;
56581;SDS011;42463;52.214;21.238;2023-12-22T08:55:50;7.50;;;2.00;;
56581;SDS011;42463;52.214;21.238;2023-12-22T08:57:56;5.30;;;1.90;;
56581;SDS011;42463;52.214;21.238;2023-12-22T09:00:03;6.50;;;2.00;;
56581;SDS011;42463;52.214;21.238;2023-12-22T09:02:15;8.60;;;1.70;;
56581;SDS011;42463;52.214;21.238;2023-12-22T09:04:21;6.00;;;1.60;;
56581;SDS011;42463;52.214;21.238;2023-12-22T09:06:27;9.80;;;1.90;;
56581;SDS011;42463;52.214;21.238;2023-12-22T09:08:34;7.90;;;1.80;;
56581;SDS011;42463;52.214;21.238;2023-12-22T09:10:40;7.50;;;2.30;;
56581;SDS011;42463;52.214;21.238;2023-12-22T09:12:47;6.60;;;2.10;;
56581;SDS011;42463;52.214;21.238;2023-12-22T09:14:55;8.60;;;2.60;;
56581;SDS011;42463;52.214;21.238;2023-12-22T09:17:12;12.10;;;2.20;;
56581;SDS011;42463;52.214;21.238;2023-12-22T09:19:20;9.10;;;2.10;;
56581;SDS011;42463;52.214;21.238;2023-12-22T09:21:27;5.40;;;1.60;;
56581;SDS011;42463;52.214;21.238;2023-12-22T09:23:34;7.10;;;2.00;;
56581;SDS011;42463;52.214;21.238;2023-12-22T09:25:42;9.10;;;1.90;;
56581;SDS011;42463;52.214;21.238;2023-12-22T09:27:49;5.70;;;1.90;;
56581;SDS011;42463;52.214;21.238;2023-12-22T09:29:56;10.80;;;2.10;;
56581;SDS011;42463;52.214;21.238;2023-12-22T09:32:03;7.80;;;2.50;;
56581;SDS011;42463;52.214;21.238;2023-12-22T09:34:12;5.30;;;2.00;;
56581;SDS011;42463;52.214;21.238;2023-12-22T09:36:18;6.70;;;1.90;;
56581;SDS011;42463;52.214;21.238;2023-12-22T09:38:25;10.60;;;2.00;;
56581;SDS011;42463;52.214;21.238;2023-12-22T09:40:32;8.40;;;2.10;;
56581;SDS011;42463;52.214;21.238;2023-12-22T09:42:40;7.90;;;1.80;;
56581;SDS011;42463;52.214;21.238;2023-12-22T09:44:48;10.00;;;1.90;;
56581;SDS011;42463;52.214;21.238;2023-12-22T09:46:57;6.40;;;1.50;;
56581;SDS011;42463;52.214;21.238;2023-12-22T09:49:07;6.30;;;1.90;;
56581;SDS011;42463;52.214;21.238;2023-12-22T09:51:16;7.10;;;1.80;;
56581;SDS011;42463;52.214;21.238;2023-12-22T09:53:24;9.20;;;2.40;;
56581;SDS011;42463;52.214;21.238;2023-12-22T09:55:34;7.00;;;2.40;;
56581;SDS011;42463;52.214;21.238;2023-12-22T09:57:42;9.30;;;1.90;;
56581;SDS011;42463;52.214;21.238;2023-12-22T09:59:51;5.20;;;2.40;;
56581;SDS011;42463;52.214;21.238;2023-12-22T10:01:58;8.10;;;2.10;;
56581;SDS011;42463;52.214;21.238;2023-12-22T10:04:07;6.50;;;2.00;;
56581;SDS011;42463;52.214;21.238;2023-12-22T10:06:14;6.60;;;1.30;;
56581;SDS011;42463;52.214;21.238;2023-12-22T10:08:21;6.10;;;2.10;;
56581;SDS011;42463;52.214;21.238;2023-12-22T10:10:28;10.30;;;1.90;;
56581;SDS011;42463;52.214;21.238;2023-12-22T10:12:37;5.80;;;1.40;;
56581;SDS011;42463;52.214;21.238;2023-12-22T10:14:46;7.00;;;1.80;;
56581;SDS011;42463;52.214;21.238;2023-12-22T10:16:55;8.50;;;1.80;;
56581;SDS011;42463;52.214;21.238;2023-12-22T10:19:01;7.50;;;2.10;;
56581;SDS011;42463;52.214;21.238;2023-12-22T10:21:08;8.00;;;1.50;;
56581;SDS011;42463;52.214;21.238;2023-12-22T10:23:16;8.90;;;2.40;;
56581;SDS011;42463;52.214;21.238;2023-12-22T10:25:24;5.60;;;1.40;;
56581;SDS011;42463;52.214;21.238;2023-12-22T10:27:35;5.40;;;1.60;;
56581;SDS011;42463;52.214;21.238;2023-12-22T10:29:42;4.10;;;1.40;;
56581;SDS011;42463;52.214;21.238;2023-12-22T10:31:49;3.00;;;0.80;;
56581;SDS011;42463;52.214;21.238;2023-12-22T10:33:58;2.20;;;0.80;;
56581;SDS011;42463;52.214;21.238;2023-12-22T10:36:06;1.40;;;0.50;;
56581;SDS011;42463;52.214;21.238;2023-12-22T10:38:14;1.60;;;0.70;;
56581;SDS011;42463;52.214;21.238;2023-12-22T10:40:22;1.40;;;0.60;;
56581;SDS011;42463;52.214;21.238;2023-12-22T10:42:29;2.70;;;0.70;;
56581;SDS011;42463;52.214;21.238;2023-12-22T10:44:36;1.80;;;0.70;;
56581;SDS011;42463;52.214;21.238;2023-12-22T10:46:46;2.90;;;0.80;;
56581;SDS011;42463;52.214;21.238;2023-12-22T10:48:55;1.70;;;1.00;;
56581;SDS011;42463;52.214;21.238;2023-12-22T10:51:02;2.00;;;0.70;;
56581;SDS011;42463;52.214;21.238;2023-12-22T10:53:13;4.90;;;0.80;;
56581;SDS011;42463;52.214;21.238;2023-12-22T10:55:20;2.50;;;0.60;;
56581;SDS011;42463;52.214;21.238;2023-12-22T10:57:27;1.60;;;0.60;;
56581;SDS011;42463;52.214;21.238;2023-12-22T10:59:44;0.40;;;0.40;;
56581;SDS011;42463;52.214;21.238;2023-12-22T11:01:51;1.20;;;0.40;;
56581;SDS011;42463;52.214;21.238;2023-12-22T11:04:01;2.00;;;0.50;;
56581;SDS011;42463;52.214;21.238;2023-12-22T11:06:10;1.30;;;0.60;;
56581;SDS011;42463;52.214;21.238;2023-12-22T11:08:20;0.70;;;0.60;;
56581;SDS011;42463;52.214;21.238;2023-12-22T11:10:30;3.20;;;0.60;;
56581;SDS011;42463;52.214;21.238;2023-12-22T11:12:38;2.10;;;0.60;;
56581;SDS011;42463;52.214;21.238;2023-12-22T11:14:48;0.80;;;0.60;;
56581;SDS011;42463;52.214;21.238;2023-12-22T11:16:56;1.20;;;0.70;;
56581;SDS011;42463;52.214;21.238;2023-12-22T11:19:05;1.90;;;0.80;;
56581;SDS011;42463;52.214;21.238;2023-12-22T11:21:15;5.90;;;0.90;;
56581;SDS011;42463;52.214;21.238;2023-12-22T11:23:23;2.60;;;1.10;;
56581;SDS011;42463;52.214;21.238;2023-12-22T11:25:29;2.30;;;1.10;;
56581;SDS011;42463;52.214;21.238;2023-12-22T11:27:37;3.30;;;1.30;;
56581;SDS011;42463;52.214;21.238;2023-12-22T11:29:45;5.10;;;1.20;;
56581;SDS011;42463;52.214;21.238;2023-12-22T11:31:54;4.20;;;1.60;;
56581;SDS011;42463;52.214;21.238;2023-12-22T11:34:02;4.10;;;1.10;;
56581;SDS011;42463;52.214;21.238;2023-12-22T11:36:13;4.10;;;1.00;;
56581;SDS011;42463;52.214;21.238;2023-12-22T11:38:22;4.60;;;1.30;;
56581;SDS011;42463;52.214;21.238;2023-12-22T11:40:29;3.90;;;2.30;;
56581;SDS011;42463;52.214;21.238;2023-12-22T11:42:37;2.90;;;1.60;;
56581;SDS011;42463;52.214;21.238;2023-12-22T11:44:47;6.70;;;1.40;;
56581;SDS011;42463;52.214;21.238;2023-12-22T11:47:04;4.70;;;1.10;;
56581;SDS011;42463;52.214;21.238;2023-12-22T11:49:11;6.00;;;1.10;;
56581;SDS011;42463;52.214;21.238;2023-12-22T11:51:19;2.50;;;1.20;;
56581;SDS011;42463;52.214;21.238;2023-12-22T11:53:25;5.20;;;1.80;;
56581;SDS011;42463;52.214;21.238;2023-12-22T12:00:41;3.10;;;1.30;;
56581;SDS011;42463;52.214;21.238;2023-12-22T12:02:55;4.30;;;1.40;;
56581;SDS011;42463;52.214;21.238;2023-12-22T12:05:02;3.60;;;1.30;;
56581;SDS011;42463;52.214;21.238;2023-12-22T12:09:47;4.50;;;1.30;;
56581;SDS011;42463;52.214;21.238;2023-12-22T12:14:19;3.70;;;1.40;;
56581;SDS011;42463;52.214;21.238;2023-12-22T12:16:33;4.70;;;1.50;;
56581;SDS011;42463;52.214;21.238;2023-12-22T12:18:43;4.80;;;1.50;;
56581;SDS011;42463;52.214;21.238;2023-12-22T12:20:50;5.10;;;1.30;;
56581;SDS011;42463;52.214;21.238;2023-12-22T12:22:58;3.50;;;1.70;;
56581;SDS011;42463;52.214;21.238;2023-12-22T12:25:08;3.40;;;1.60;;
56581;SDS011;42463;52.214;21.238;2023-12-22T12:27:18;5.60;;;1.40;;
56581;SDS011;42463;52.214;21.238;2023-12-22T12:29:25;6.00;;;1.70;;
56581;SDS011;42463;52.214;21.238;2023-12-22T12:31:36;2.20;;;1.50;;
56581;SDS011;42463;52.214;21.238;2023-12-22T12:35:50;5.60;;;1.90;;
56581;SDS011;42463;52.214;21.238;2023-12-22T12:38:00;4.00;;;1.50;;
56581;SDS011;42463;52.214;21.238;2023-12-22T12:40:09;4.70;;;1.90;;
56581;SDS011;42463;52.214;21.238;2023-12-22T12:42:20;4.10;;;1.80;;
56581;SDS011;42463;52.214;21.238;2023-12-22T12:44:30;7.60;;;2.00;;
56581;SDS011;42463;52.214;21.238;2023-12-22T12:46:38;3.80;;;1.40;;
56581;SDS011;42463;52.214;21.238;2023-12-22T12:48:45;3.70;;;1.70;;
56581;SDS011;42463;52.214;21.238;2023-12-22T12:50:51;3.20;;;1.70;;